createdAt,value
2023-03-06T00:08:55.766Z,100934.00
2023-03-06T00:19:34.232Z,100926.00
2023-03-06T00:41:55.341Z,100894.00
2023-03-06T00:52:23.418Z,100861.00
2023-03-06T01:02:46.538Z,100852.00
2023-03-06T01:13:08.721Z,100844.00
2023-03-06T01:23:32.083Z,100830.00
2023-03-06T01:33:54.169Z,100798.00
2023-03-06T01:44:17.319Z,100789.00
2023-03-06T01:54:43.351Z,100766.00
2023-03-06T02:05:08.936Z,100753.00
2023-03-06T02:15:31.348Z,100747.00
2023-03-06T02:25:55.114Z,100731.00
2023-03-06T02:36:17.596Z,100707.00
2023-03-06T02:46:40.994Z,100693.00
2023-03-06T02:57:02.578Z,100694.00
2023-03-06T03:07:27.165Z,100684.00
2023-03-06T03:17:49.057Z,100672.00
2023-03-06T03:28:11.978Z,100662.00
2023-03-06T03:38:35.403Z,100667.00
2023-03-06T03:48:58.407Z,100655.00
2023-03-06T03:59:21.480Z,100645.00
2023-03-06T04:09:56.548Z,100636.00
2023-03-06T04:20:21.134Z,100632.00
2023-03-06T04:30:44.956Z,100652.00
2023-03-06T04:41:07.085Z,100654.00
2023-03-06T04:51:30.580Z,100667.00
2023-03-06T05:01:52.389Z,100672.00
2023-03-06T05:12:16.471Z,100676.00
2023-03-06T05:22:39.339Z,100692.00
2023-03-06T05:33:02.502Z,100699.00
2023-03-06T05:43:24.237Z,100688.00
2023-03-06T05:53:47.155Z,100713.00
2023-03-06T06:04:08.961Z,100705.00
2023-03-06T06:14:33.864Z,100711.00
2023-03-06T06:24:55.567Z,100734.00
2023-03-06T06:35:19.626Z,100721.00
2023-03-06T06:45:42.835Z,100737.00
2023-03-06T06:56:06.597Z,100733.00
2023-03-06T07:06:27.980Z,100716.00
2023-03-06T07:16:51.057Z,100729.00
2023-03-06T07:27:12.531Z,100737.00
2023-03-06T07:37:35.545Z,100736.00
2023-03-06T07:47:57.493Z,100748.00
2023-03-06T07:58:20.450Z,100742.00
2023-03-06T08:08:44.441Z,100739.00
2023-03-06T08:19:07.400Z,100743.00
2023-03-06T08:29:30.637Z,100732.00
2023-03-06T08:39:54.924Z,100738.00
2023-03-06T08:50:16.857Z,100758.00
2023-03-06T09:00:40.101Z,100756.00
2023-03-06T09:11:01.729Z,100768.00
2023-03-06T09:21:25.092Z,100775.00
2023-03-06T09:31:46.960Z,100772.00
2023-03-06T09:42:15.102Z,100766.00
2023-03-06T09:52:44.578Z,100777.00
2023-03-06T10:03:18.892Z,100775.00
2023-03-06T10:13:44.811Z,100767.00
2023-03-06T10:24:21.122Z,100777.00
2023-03-06T10:34:44.114Z,100775.00
2023-03-06T10:45:13.684Z,100764.00
2023-03-06T10:55:36.606Z,100771.00
2023-03-06T11:06:05.245Z,100758.00
2023-03-06T11:16:30.347Z,100776.00
2023-03-06T11:26:57.252Z,100758.00
2023-03-06T11:37:28.784Z,100750.00
2023-03-06T11:48:00.065Z,100741.00
2023-03-06T11:58:58.174Z,100732.00
2023-03-06T12:09:40.413Z,100723.00
2023-03-06T12:20:23.924Z,100721.00
2023-03-06T12:31:03.144Z,100708.00
2023-03-06T12:41:35.984Z,100704.00
2023-03-06T12:52:01.875Z,100706.00
2023-03-06T13:02:52.809Z,100691.00
2023-03-06T13:13:33.360Z,100687.00
2023-03-06T13:24:05.628Z,100698.00
2023-03-06T13:34:36.646Z,100680.00
2023-03-06T13:45:06.740Z,100651.00
2023-03-06T13:55:37.185Z,100661.00
2023-03-06T14:05:59.314Z,100669.00
2023-03-06T14:16:24.823Z,100666.00
2023-03-06T14:26:49.613Z,100645.00
2023-03-06T14:37:21.962Z,100646.00
2023-03-06T14:47:44.040Z,100659.00
2023-03-06T14:58:12.908Z,100646.00
2023-03-06T15:08:39.136Z,100641.00
2023-03-06T15:19:03.991Z,100646.00
2023-03-06T15:29:25.885Z,100638.00
2023-03-06T15:40:06.491Z,100631.00
2023-03-06T15:50:30.206Z,100625.00
2023-03-06T16:00:53.453Z,100638.00
2023-03-06T16:11:17.557Z,100649.00
2023-03-06T16:21:40.497Z,100663.00
2023-03-06T16:32:02.655Z,100675.00
2023-03-06T16:42:25.353Z,100674.00
2023-03-06T16:53:04.014Z,100685.00
2023-03-06T17:03:28.601Z,100695.00
2023-03-06T17:13:55.187Z,100720.00
2023-03-06T17:24:20.852Z,100724.00
2023-03-06T17:34:43.826Z,100730.00
2023-03-06T17:45:11.115Z,100755.00
2023-03-06T17:55:32.993Z,100752.00
2023-03-06T18:06:49.057Z,100755.00
2023-03-06T18:17:16.104Z,100758.00
2023-03-06T18:27:39.781Z,100763.00
2023-03-06T18:38:05.047Z,100763.00
2023-03-06T18:48:31.832Z,100752.00
2023-03-06T18:58:57.343Z,100747.00
2023-03-06T19:32:27.127Z,100761.00
2023-03-06T19:42:49.923Z,100765.00
2023-03-06T19:53:15.973Z,100757.00
2023-03-06T20:03:46.120Z,100737.00
2023-03-06T20:14:33.365Z,100751.00
2023-03-06T20:25:10.779Z,100747.00
2023-03-06T20:36:05.704Z,100723.00
2023-03-06T20:46:52.098Z,100732.00
2023-03-06T20:57:15.512Z,100708.00
2023-03-06T21:07:37.307Z,100705.00
2023-03-06T21:18:01.210Z,100686.00
2023-03-06T21:28:44.049Z,100693.00
2023-03-06T21:39:08.471Z,100676.00
2023-03-06T21:49:30.696Z,100668.00
2023-03-06T21:59:54.076Z,100669.00
2023-03-06T22:10:15.962Z,100662.00
2023-03-06T22:20:40.438Z,100644.00
2023-03-06T22:31:07.024Z,100641.00
2023-03-06T22:41:31.468Z,100613.00
2023-03-06T22:51:53.122Z,100618.00
2023-03-06T23:02:16.776Z,100607.00
2023-03-06T23:12:41.532Z,100615.00
2023-03-06T23:23:23.851Z,100580.00
2023-03-06T23:33:45.651Z,100576.00
2023-03-06T23:44:08.805Z,100572.00
2023-03-06T23:54:30.625Z,100549.00
